首页
METAR-TAF:

METAR-TAF

机场 :

华沙肖邦机场

华沙, 波兰

纬度: 52-10N, 经度: 020-58E, 海拔: 106米

当前天气观测

该预报发布于31分钟前的11:00 UTC
风速4节,风向南转西南
温度 0°C
湿度 80%
气压 1029 hPa
能見度: 5000
多云层高于2500英尺
轻雾

METAR: EPWA 181100Z 21004KT 5000 BR BKN025 M00/M03 Q1029 NOSIG

时间: 12:31 (11:31 UTC)

预报

该预报发布于3小时和1分钟前的08:30 UTC
预报有效从18日的 09点(UTC)到 19日的 09点(UTC)
风速3节,风向多变
能見度: 5000
阴天层高于1200英尺
轻雾
短暂存在
从 18日的 09点(UTC)到 18日的 12点(UTC)
能見度: 2000
多云层高于900英尺
轻雾
短暂存在
从 18日的 15点(UTC)到 19日的 04点(UTC)
能見度: 1000
多云层高于300英尺
轻雾
成为
从 18日的 18点(UTC)到 18日的 21点(UTC)
风速10节,风向南转南东

TAF: EPWA 180830Z 1809/1909 VRB03KT 5000 BR OVC012 TEMPO 1809/1812 2000 BR BKN009 TEMPO 1815/1904 1000 BR BKN003 BECMG 1818/1821 15010KT

超过4000个机场的气象观测和天气预报(METAR&TAF报告)。

可查询的气象台以黄色和红色小点在地图上表示。

将鼠标移到小点上方,可查看气象台名称。

然后点击查看天气观测和预报。

如需切换地图:点击带黑十字的绿色按钮放大地图;点击带横线的绿色按钮缩小地图;或者点击绿色箭头查看邻近地区的地图。


METAR-TAF: